Time;durP1;ratioP1;P1;durP2;ratioP2;P2;SDS_P1;SDS_P2;PMS_P1;PMS_P2;Temp;Humidity;BMP_temperature;BMP_pressure;BME280_temperature;BME280_humidity;BME280_pressure;Samples;Min_cycle;Max_cycle;Signal;HPM_P1;HPM_P2
2021/10/08 00:01:40;;;;;;;1.40;0.70;;;21.80;51.20;;;;;;4982792;28;20386;-67
2021/10/08 00:04:06;;;;;;;1.73;0.77;;;21.80;51.10;;;;;;4965628;28;20461;-66
2021/10/08 00:06:31;;;;;;;1.20;0.77;;;21.80;51.20;;;;;;4982714;28;20814;-67
2021/10/08 00:08:57;;;;;;;2.10;0.82;;;21.70;51.10;;;;;;4982539;28;20448;-66
2021/10/08 00:11:23;;;;;;;2.08;1.00;;;21.80;51.10;;;;;;4965243;28;20437;-68
2021/10/08 00:13:49;;;;;;;1.10;0.70;;;21.80;51.00;;;;;;4982634;28;20494;-65
2021/10/08 00:16:15;;;;;;;1.48;0.70;;;21.80;51.10;;;;;;4982838;28;20486;-68
2021/10/08 00:18:41;;;;;;;1.70;0.60;;;21.80;51.10;;;;;;4965234;28;20418;-68
2021/10/08 00:21:08;;;;;;;1.63;0.80;;;21.70;51.10;;;;;;4964359;28;20896;-66
2021/10/08 00:23:34;;;;;;;1.63;0.70;;;21.70;51.10;;;;;;4982475;28;20783;-67
2021/10/08 00:26:00;;;;;;;1.20;0.70;;;21.70;51.10;;;;;;4982799;28;20406;-67
2021/10/08 00:28:26;;;;;;;1.60;0.70;;;21.80;51.00;;;;;;4982662;28;20750;-67
2021/10/08 00:30:51;;;;;;;1.75;0.80;;;21.80;51.10;;;;;;4964746;28;20403;-65
2021/10/08 00:33:17;;;;;;;1.50;0.63;;;21.70;51.00;;;;;;4965395;28;20762;-66
2021/10/08 00:35:43;;;;;;;1.30;0.60;;;21.70;51.00;;;;;;4982063;28;20476;-65
2021/10/08 00:38:09;;;;;;;1.15;0.70;;;21.70;51.10;;;;;;4982278;28;20886;-65
2021/10/08 00:40:41;;;;;;;1.23;0.70;;;21.70;51.10;;;;;;4982404;28;20394;-67
2021/10/08 00:43:08;;;;;;;2.28;0.90;;;21.80;51.10;;;;;;4964445;28;20433;-67
2021/10/08 00:45:35;;;;;;;1.10;0.60;;;21.80;50.90;;;;;;4982317;28;20965;-64
2021/10/08 00:48:04;;;;;;;0.90;0.60;;;21.80;51.00;;;;;;4965085;28;20898;-66
2021/10/08 00:50:35;;;;;;;1.17;0.70;;;21.70;51.00;;;;;;4964928;28;20394;-64
2021/10/08 00:53:00;;;;;;;2.00;0.80;;;21.70;51.10;;;;;;4964751;28;20570;-66
2021/10/08 00:55:26;;;;;;;1.30;0.70;;;21.70;51.10;;;;;;4964914;28;20473;-66
2021/10/08 00:57:52;;;;;;;1.10;0.60;;;21.80;51.00;;;;;;4982596;28;20394;-65
2021/10/08 01:00:18;;;;;;;1.50;0.63;;;21.80;51.00;;;;;;4964829;28;20433;-65
2021/10/08 01:02:44;;;;;;;1.83;0.85;;;21.70;51.00;;;;;;4984724;28;20394;-66
2021/10/08 01:05:11;;;;;;;1.65;0.70;;;21.70;51.00;;;;;;4985652;28;20394;-67
2021/10/08 01:07:37;;;;;;;1.80;0.80;;;21.70;51.10;;;;;;4968277;28;20487;-66
2021/10/08 01:10:04;;;;;;;1.40;0.70;;;21.60;51.10;;;;;;4985939;28;20410;-63
2021/10/08 01:12:31;;;;;;;1.38;0.68;;;21.70;51.10;;;;;;4968473;28;20425;-65
2021/10/08 01:14:57;;;;;;;1.25;0.60;;;21.70;51.00;;;;;;4967664;28;20546;-67
2021/10/08 01:17:22;;;;;;;1.42;0.60;;;21.70;51.00;;;;;;4986017;28;20893;-66
2021/10/08 01:19:48;;;;;;;1.20;0.80;;;21.70;51.10;;;;;;4985644;28;20818;-66
2021/10/08 01:22:14;;;;;;;1.50;0.70;;;21.70;51.00;;;;;;4985724;28;20722;-64
2021/10/08 01:24:40;;;;;;;2.37;0.70;;;21.60;51.10;;;;;;4967969;28;20512;-65
2021/10/08 01:27:07;;;;;;;1.50;0.70;;;21.70;51.10;;;;;;4967463;28;20909;-66
2021/10/08 01:29:45;;;;;;;1.55;0.70;;;21.70;50.90;;;;;;4967924;28;20752;-65
2021/10/08 01:32:10;;;;;;;1.50;0.80;;;21.70;51.00;;;;;;4985203;28;20390;-65
2021/10/08 01:34:36;;;;;;;1.53;0.70;;;21.70;50.90;;;;;;4985070;28;20417;-65
2021/10/08 01:37:02;;;;;;;1.25;0.80;;;21.60;51.00;;;;;;4984119;28;20863;-66
2021/10/08 01:39:27;;;;;;;1.57;0.70;;;21.60;51.00;;;;;;4967455;28;20856;-65
2021/10/08 01:41:53;;;;;;;1.40;0.70;;;21.60;51.00;;;;;;4967899;28;20407;-65
2021/10/08 01:44:19;;;;;;;1.17;0.60;;;21.70;51.00;;;;;;4967722;28;20383;-66
2021/10/08 01:46:44;;;;;;;1.40;0.70;;;21.70;51.00;;;;;;4967649;28;20746;-64
2021/10/08 01:49:10;;;;;;;1.70;0.80;;;21.70;51.00;;;;;;4966911;28;20398;-65
2021/10/08 01:51:36;;;;;;;1.60;0.70;;;21.60;51.00;;;;;;4967546;28;20493;-67
2021/10/08 01:54:01;;;;;;;1.50;0.70;;;21.60;51.10;;;;;;4985048;28;20866;-64
2021/10/08 01:56:28;;;;;;;1.00;0.55;;;21.60;51.10;;;;;;4985122;28;20398;-65
2021/10/08 01:58:53;;;;;;;1.45;0.50;;;21.70;51.10;;;;;;4983174;28;20434;-65
2021/10/08 02:01:19;;;;;;;1.07;0.60;;;21.70;51.00;;;;;;4984936;28;20405;-65
2021/10/08 02:03:47;;;;;;;1.08;0.75;;;21.60;50.90;;;;;;4984743;28;20406;-67
2021/10/08 02:06:13;;;;;;;1.60;0.70;;;21.60;51.00;;;;;;4984768;28;20492;-66
2021/10/08 02:08:38;;;;;;;1.20;0.70;;;21.60;51.10;;;;;;4984925;28;20810;-65
2021/10/08 02:11:04;;;;;;;1.13;0.70;;;21.60;51.10;;;;;;4966827;28;20417;-64
2021/10/08 02:13:30;;;;;;;1.33;0.50;;;21.60;50.90;;;;;;4983535;28;20434;-65
2021/10/08 02:15:55;;;;;;;2.13;0.70;;;21.60;50.90;;;;;;4984575;28;20442;-66
2021/10/08 02:18:21;;;;;;;0.97;0.60;;;21.60;51.00;;;;;;4966784;28;20900;-66
2021/10/08 02:20:47;;;;;;;2.05;0.68;;;21.60;51.00;;;;;;4967168;28;20410;-67
2021/10/08 02:23:13;;;;;;;1.10;0.73;;;21.60;51.10;;;;;;4983948;28;20395;-65
2021/10/08 02:25:38;;;;;;;1.30;0.80;;;21.60;51.10;;;;;;4984612;28;20395;-67
2021/10/08 02:28:04;;;;;;;1.17;0.77;;;21.60;51.00;;;;;;4984470;28;20391;-66
2021/10/08 02:30:30;;;;;;;1.13;0.70;;;21.70;50.90;;;;;;4984515;28;20397;-67
2021/10/08 02:32:55;;;;;;;0.90;0.63;;;21.60;51.00;;;;;;4966465;28;20395;-65
2021/10/08 02:35:21;;;;;;;1.30;0.80;;;21.60;50.90;;;;;;4966836;28;20483;-66
2021/10/08 02:37:47;;;;;;;1.40;0.70;;;21.60;51.00;;;;;;4984078;28;20770;-67
2021/10/08 02:40:13;;;;;;;1.50;0.70;;;21.60;51.10;;;;;;4984388;28;20466;-66
2021/10/08 02:42:38;;;;;;;1.58;0.95;;;21.60;51.00;;;;;;4966427;28;20453;-67
2021/10/08 02:45:04;;;;;;;1.07;0.67;;;21.60;50.80;;;;;;4966270;28;20876;-66
2021/10/08 02:47:30;;;;;;;1.35;0.60;;;21.60;50.90;;;;;;4984194;28;20402;-67
2021/10/08 02:49:56;;;;;;;1.33;0.80;;;21.60;50.90;;;;;;4966391;28;20516;-67
2021/10/08 02:52:21;;;;;;;1.20;0.80;;;21.60;51.10;;;;;;4983499;28;20391;-67
2021/10/08 02:54:47;;;;;;;1.75;0.60;;;21.50;51.10;;;;;;4983057;28;20421;-67
2021/10/08 02:57:13;;;;;;;1.60;0.60;;;21.60;51.10;;;;;;4983593;28;20909;-67
2021/10/08 02:59:39;;;;;;;0.98;0.60;;;21.60;51.00;;;;;;4966265;28;20933;-65
2021/10/08 03:02:05;;;;;;;1.40;0.60;;;21.60;50.80;;;;;;4983694;28;20790;-69
2021/10/08 03:04:30;;;;;;;1.40;0.70;;;21.60;51.00;;;;;;4966535;28;20406;-70
2021/10/08 03:06:57;;;;;;;1.87;0.90;;;21.60;51.00;;;;;;4983418;28;20397;-68
2021/10/08 03:09:23;;;;;;;3.78;1.00;;;21.60;51.30;;;;;;4965966;28;20409;-70
2021/10/08 03:11:48;;;;;;;6.68;1.25;;;21.60;51.30;;;;;;4983187;28;20522;-69
2021/10/08 03:14:14;;;;;;;8.55;1.20;;;21.70;51.20;;;;;;4983536;28;20485;-68
2021/10/08 03:16:40;;;;;;;5.38;0.95;;;21.80;52.30;;;;;;4983468;28;20390;-68
2021/10/08 03:19:05;;;;;;;6.28;1.08;;;21.80;51.60;;;;;;4983007;28;20458;-65
2021/10/08 03:21:31;;;;;;;3.00;1.20;;;21.80;51.80;;;;;;4982673;28;20394;-65
2021/10/08 03:23:57;;;;;;;4.50;1.30;;;21.80;52.30;;;;;;4982839;28;20470;-69
2021/10/08 03:26:23;;;;;;;10.20;1.40;;;21.80;52.50;;;;;;4982896;28;20391;-69
2021/10/08 03:28:49;;;;;;;8.68;1.25;;;21.90;52.70;;;;;;4983269;28;20394;-66
2021/10/08 03:31:15;;;;;;;4.72;1.35;;;21.90;52.60;;;;;;4982713;28;20399;-65
2021/10/08 03:33:40;;;;;;;5.57;1.63;;;21.90;52.20;;;;;;4983094;28;20401;-63
2021/10/08 03:36:08;;;;;;;5.22;1.20;;;21.90;52.30;;;;;;4983396;28;20422;-65
2021/10/08 03:38:35;;;;;;;8.00;1.20;;;21.90;52.60;;;;;;4982986;28;20410;-66
2021/10/08 03:41:10;;;;;;;4.32;1.00;;;21.90;53.50;;;;;;4982449;28;20410;-64
2021/10/08 03:43:37;;;;;;;5.97;1.30;;;21.90;52.90;;;;;;4983082;28;20478;-67
2021/10/08 03:46:07;;;;;;;4.03;1.10;;;22.00;53.10;;;;;;4982979;28;20887;-66
2021/10/08 03:51:04;;;;;;;4.57;1.20;;;22.00;52.90;;;;;;4983019;28;20878;-66
2021/10/08 03:53:31;;;;;;;5.03;1.23;;;21.90;52.70;;;;;;4982725;28;20433;-65
2021/10/08 03:55:56;;;;;;;6.60;1.42;;;21.90;53.60;;;;;;4982777;28;20402;-67
2021/10/08 03:58:22;;;;;;;4.37;1.10;;;22.00;53.70;;;;;;4982632;28;20387;-66
2021/10/08 04:00:48;;;;;;;4.85;1.23;;;22.10;53.70;;;;;;4982955;28;20402;-67
2021/10/08 04:03:14;;;;;;;3.13;1.48;;;22.10;53.00;;;;;;4981967;28;20904;-66
2021/10/08 04:05:40;;;;;;;5.45;1.27;;;22.10;53.20;;;;;;4982713;28;20428;-65
2021/10/08 04:08:06;;;;;;;2.72;1.20;;;22.00;53.10;;;;;;4982698;28;20402;-67
2021/10/08 04:10:31;;;;;;;3.30;1.10;;;22.00;53.20;;;;;;4982696;28;20410;-67
2021/10/08 04:12:57;;;;;;;3.50;1.00;;;22.00;53.60;;;;;;4982490;28;20394;-67
2021/10/08 04:15:23;;;;;;;4.20;1.20;;;22.10;53.50;;;;;;4982262;28;20406;-65
2021/10/08 04:17:48;;;;;;;4.97;0.93;;;22.10;53.30;;;;;;4982693;28;20452;-67
2021/10/08 04:20:14;;;;;;;2.72;1.10;;;22.10;53.20;;;;;;4982546;28;20430;-66
2021/10/08 04:22:40;;;;;;;3.78;1.10;;;22.00;53.10;;;;;;4965130;28;20786;-67
2021/10/08 04:25:07;;;;;;;3.27;0.97;;;22.00;53.00;;;;;;4981977;28;20501;-69
2021/10/08 04:27:32;;;;;;;3.45;0.93;;;22.00;53.20;;;;;;4982757;28;20390;-68
2021/10/08 04:29:58;;;;;;;4.17;0.90;;;22.10;53.00;;;;;;4965226;28;20464;-70
2021/10/08 04:32:24;;;;;;;2.67;1.10;;;22.10;52.90;;;;;;4978592;28;20394;-68
2021/10/08 04:34:49;;;;;;;2.40;1.00;;;22.10;52.90;;;;;;4981797;28;20410;-69
2021/10/08 04:37:15;;;;;;;2.72;0.90;;;22.00;52.70;;;;;;4983024;28;20766;-68
2021/10/08 04:39:40;;;;;;;3.67;0.90;;;22.00;52.80;;;;;;4986172;28;21230;-69
2021/10/08 04:42:06;;;;;;;6.28;1.30;;;22.00;52.70;;;;;;4986123;28;20422;-68
2021/10/08 04:44:33;;;;;;;6.43;1.60;;;22.00;52.50;;;;;;4986073;28;20902;-65
2021/10/08 04:46:59;;;;;;;8.10;1.25;;;22.00;52.60;;;;;;4985869;28;20383;-67
2021/10/08 04:49:28;;;;;;;9.15;1.52;;;22.00;52.70;;;;;;4984401;28;20477;-65
2021/10/08 04:51:54;;;;;;;9.83;1.93;;;22.00;52.60;;;;;;4985043;28;20398;-67
2021/10/08 04:54:19;;;;;;;6.82;1.25;;;22.00;52.60;;;;;;4963956;28;20441;-66
2021/10/08 04:56:45;;;;;;;8.87;1.73;;;22.00;54.50;;;;;;4984215;28;20748;-67
2021/10/08 04:59:10;;;;;;;7.47;1.30;;;22.10;55.00;;;;;;4984614;28;20422;-66
2021/10/08 05:01:36;;;;;;;8.23;1.67;;;22.20;54.10;;;;;;4985275;28;20426;-66
2021/10/08 05:04:02;;;;;;;5.07;1.50;;;22.20;53.50;;;;;;4985394;28;20833;-66
2021/10/08 05:06:27;;;;;;;9.40;1.50;;;22.20;53.90;;;;;;4985306;28;20395;-68
2021/10/08 05:08:53;;;;;;;9.57;2.22;;;22.20;54.20;;;;;;4985111;28;20497;-67
2021/10/08 05:11:19;;;;;;;4.70;1.30;;;22.20;54.50;;;;;;4967072;28;20410;-66
2021/10/08 05:13:44;;;;;;;9.63;1.27;;;22.30;55.10;;;;;;4985552;28;20426;-68
2021/10/08 05:16:10;;;;;;;6.50;1.63;;;22.40;55.00;;;;;;4985140;28;20874;-67
2021/10/08 05:18:36;;;;;;;6.53;1.30;;;22.40;54.70;;;;;;4985446;28;20759;-68
2021/10/08 05:21:01;;;;;;;4.07;1.20;;;22.40;54.10;;;;;;4984467;28;20414;-68
2021/10/08 05:23:27;;;;;;;5.35;1.30;;;22.30;54.50;;;;;;4984767;28;20385;-69
2021/10/08 05:25:53;;;;;;;7.80;1.70;;;22.30;54.70;;;;;;4984891;28;20407;-67
2021/10/08 05:28:18;;;;;;;5.03;1.20;;;22.40;55.00;;;;;;4984938;28;20870;-67
2021/10/08 05:30:44;;;;;;;8.35;1.20;;;22.40;54.80;;;;;;4984570;28;20883;-68
2021/10/08 05:33:10;;;;;;;6.37;1.13;;;22.40;54.30;;;;;;4983808;28;20410;-68
2021/10/08 05:35:36;;;;;;;4.35;1.45;;;22.30;53.80;;;;;;4967030;28;20862;-68
2021/10/08 05:38:01;;;;;;;8.80;1.55;;;22.20;53.30;;;;;;4984531;28;20423;-67
2021/10/08 05:40:27;;;;;;;5.30;1.00;;;22.20;53.30;;;;;;4984444;28;20426;-68
2021/10/08 05:42:53;;;;;;;6.18;1.42;;;22.20;54.30;;;;;;4984355;28;20477;-67
2021/10/08 05:45:19;;;;;;;8.60;1.63;;;22.30;54.70;;;;;;4983002;28;20500;-67
2021/10/08 05:47:44;;;;;;;5.97;1.70;;;22.40;55.90;;;;;;4980667;28;20399;-68
2021/10/08 05:50:10;;;;;;;6.95;1.70;;;22.40;54.90;;;;;;4984450;28;20403;-68
2021/10/08 05:52:36;;;;;;;7.33;1.53;;;22.40;54.40;;;;;;4984642;28;20395;-68
2021/10/08 05:55:02;;;;;;;5.90;1.23;;;22.30;54.70;;;;;;4984806;28;20394;-67
2021/10/08 05:57:28;;;;;;;5.90;2.00;;;22.30;54.60;;;;;;4984097;28;20401;-67
2021/10/08 05:59:53;;;;;;;9.80;1.20;;;22.40;54.70;;;;;;4984555;28;20426;-66
2021/10/08 06:02:19;;;;;;;9.38;1.73;;;22.40;54.60;;;;;;4984757;28;20448;-69
2021/10/08 06:04:45;;;;;;;8.50;2.00;;;22.40;54.40;;;;;;4984576;28;20774;-68
2021/10/08 06:07:10;;;;;;;5.47;1.63;;;22.40;54.10;;;;;;4984301;28;21265;-67
2021/10/08 06:09:36;;;;;;;6.07;1.57;;;22.30;53.70;;;;;;4978163;28;20570;-68
2021/10/08 06:12:03;;;;;;;5.93;1.20;;;22.30;54.20;;;;;;4984623;28;20397;-68
2021/10/08 06:14:28;;;;;;;5.50;1.00;;;22.40;54.20;;;;;;4984241;28;20774;-67
2021/10/08 06:16:54;;;;;;;4.20;1.17;;;22.40;53.40;;;;;;4966996;28;20395;-68
2021/10/08 06:19:20;;;;;;;9.40;1.50;;;22.40;53.50;;;;;;4965739;28;20422;-69
2021/10/08 06:21:46;;;;;;;7.90;1.55;;;22.30;53.10;;;;;;4966890;28;20932;-67
2021/10/08 06:24:11;;;;;;;6.43;1.30;;;22.30;53.40;;;;;;4984386;28;20874;-66
2021/10/08 06:26:37;;;;;;;6.70;1.20;;;22.40;53.60;;;;;;4982282;28;20406;-68
2021/10/08 06:29:03;;;;;;;7.18;1.30;;;22.30;53.50;;;;;;4984401;28;20414;-69
2021/10/08 06:31:29;;;;;;;4.00;1.20;;;22.40;53.50;;;;;;4983604;28;20412;-67
2021/10/08 06:33:55;;;;;;;6.45;1.42;;;22.50;53.60;;;;;;4983073;28;20394;-67
2021/10/08 06:36:20;;;;;;;7.35;1.30;;;22.40;53.40;;;;;;4964952;28;20413;-69
2021/10/08 06:38:46;;;;;;;6.63;1.50;;;22.40;53.50;;;;;;4983006;28;20513;-68
2021/10/08 06:41:12;;;;;;;5.57;1.23;;;22.40;53.40;;;;;;4983475;28;20399;-67
2021/10/08 06:43:38;;;;;;;5.23;1.37;;;22.40;53.30;;;;;;4966651;28;20394;-69
2021/10/08 06:46:04;;;;;;;4.53;1.30;;;22.40;53.30;;;;;;4982401;28;20489;-68
2021/10/08 06:48:29;;;;;;;5.30;1.00;;;22.40;53.20;;;;;;4983702;28;20914;-68
2021/10/08 06:50:57;;;;;;;7.50;1.20;;;22.30;53.20;;;;;;4983979;28;20842;-67
2021/10/08 06:53:23;;;;;;;3.33;1.15;;;22.30;53.30;;;;;;4983321;28;20386;-65
2021/10/08 06:55:49;;;;;;;3.78;1.23;;;22.20;53.00;;;;;;4983998;28;20398;-67
2021/10/08 06:58:14;;;;;;;3.47;1.10;;;22.20;53.00;;;;;;4984005;28;20394;-66
2021/10/08 07:00:40;;;;;;;4.90;1.40;;;22.20;53.00;;;;;;4965474;28;20489;-66
2021/10/08 07:03:06;;;;;;;4.77;1.00;;;22.20;53.00;;;;;;4983381;28;20405;-65
2021/10/08 07:05:31;;;;;;;3.35;1.17;;;22.30;53.10;;;;;;4983041;28;20875;-67
2021/10/08 07:07:57;;;;;;;4.00;1.00;;;22.20;53.30;;;;;;4966221;28;20402;-67
2021/10/08 07:10:23;;;;;;;4.60;1.20;;;22.20;53.10;;;;;;4966427;28;20546;-66
2021/10/08 07:12:48;;;;;;;3.23;1.10;;;22.10;52.80;;;;;;4983539;28;20394;-65
2021/10/08 07:15:16;;;;;;;6.38;1.13;;;22.20;52.80;;;;;;4965322;28;20767;-67
2021/10/08 07:17:45;;;;;;;4.07;0.93;;;22.30;53.10;;;;;;4965762;28;20425;-66
2021/10/08 07:20:12;;;;;;;3.83;1.20;;;22.30;53.10;;;;;;4966196;28;20434;-67
2021/10/08 07:22:38;;;;;;;4.97;1.00;;;22.20;53.00;;;;;;4966153;28;20401;-67
2021/10/08 07:25:06;;;;;;;2.80;1.20;;;22.20;52.60;;;;;;4983340;28;20406;-67
2021/10/08 07:27:32;;;;;;;3.47;1.00;;;22.10;52.60;;;;;;4983045;28;20391;-67
2021/10/08 07:29:58;;;;;;;3.00;1.10;;;22.20;52.90;;;;;;4983397;28;20402;-67
2021/10/08 07:32:23;;;;;;;1.90;1.00;;;22.30;52.70;;;;;;4983288;28;20387;-66
2021/10/08 07:34:49;;;;;;;2.93;1.07;;;22.30;52.80;;;;;;4983209;28;20407;-66
2021/10/08 07:37:14;;;;;;;2.42;0.90;;;22.20;52.50;;;;;;4982573;28;20407;-66
2021/10/08 07:39:40;;;;;;;5.03;1.53;;;22.20;52.60;;;;;;4983102;28;20495;-67
2021/10/08 07:42:06;;;;;;;3.78;1.10;;;22.10;52.30;;;;;;4965129;28;20926;-66
2021/10/08 07:44:32;;;;;;;3.03;1.20;;;22.10;52.80;;;;;;4965588;28;20478;-66
2021/10/08 07:46:57;;;;;;;2.97;1.00;;;22.20;52.60;;;;;;4965588;28;20395;-68
2021/10/08 07:49:23;;;;;;;3.23;1.07;;;22.20;52.70;;;;;;4982706;28;20426;-67
2021/10/08 07:51:49;;;;;;;3.65;0.82;;;22.20;52.70;;;;;;4964675;28;20422;-67
2021/10/08 07:54:14;;;;;;;2.33;1.00;;;22.10;52.40;;;;;;4964664;28;20399;-65
2021/10/08 07:56:40;;;;;;;3.30;1.00;;;22.10;52.30;;;;;;4982420;28;21025;-65
2021/10/08 07:59:06;;;;;;;4.00;1.20;;;22.10;52.60;;;;;;4982936;28;20421;-65
2021/10/08 08:01:32;;;;;;;2.83;1.75;;;22.20;53.00;;;;;;4982339;28;20399;-67
2021/10/08 08:03:57;;;;;;;5.53;1.90;;;22.20;51.50;;;;;;4982808;28;20856;-66
2021/10/08 08:06:23;;;;;;;4.27;2.30;;;22.10;51.60;;;;;;4982556;28;20461;-67
2021/10/08 08:08:49;;;;;;;4.55;2.60;;;22.10;51.30;;;;;;4982532;28;20893;-67
2021/10/08 08:11:14;;;;;;;5.37;2.73;;;21.90;51.40;;;;;;4967007;28;20469;-68
2021/10/08 08:13:40;;;;;;;4.32;2.20;;;21.90;51.40;;;;;;4986246;28;20874;-68
2021/10/08 08:16:06;;;;;;;4.67;2.23;;;21.90;51.00;;;;;;4969082;28;20394;-66
2021/10/08 08:18:31;;;;;;;4.85;2.30;;;21.90;50.70;;;;;;4969015;28;20410;-68
2021/10/08 08:20:57;;;;;;;3.33;2.10;;;21.90;51.10;;;;;;4986749;28;20399;-65
2021/10/08 08:23:23;;;;;;;3.53;2.00;;;21.80;51.10;;;;;;4986196;28;20395;-67
2021/10/08 08:25:49;;;;;;;6.47;2.10;;;21.80;51.90;;;;;;4986604;28;20404;-67
2021/10/08 08:28:15;;;;;;;4.20;1.45;;;21.80;53.30;;;;;;4969335;28;20529;-67
2021/10/08 08:30:42;;;;;;;3.80;1.80;;;21.90;53.50;;;;;;4986414;28;20402;-65
2021/10/08 08:33:08;;;;;;;5.05;1.67;;;22.00;52.90;;;;;;4986411;28;20500;-65
2021/10/08 08:35:34;;;;;;;3.78;2.08;;;21.90;52.30;;;;;;4968161;28;20501;-66
2021/10/08 08:38:00;;;;;;;4.00;1.98;;;21.90;51.40;;;;;;4986347;28;20418;-66
2021/10/08 08:40:28;;;;;;;3.03;1.80;;;21.80;51.70;;;;;;4985977;28;20426;-66
2021/10/08 08:42:54;;;;;;;4.13;2.08;;;21.80;52.30;;;;;;4968668;28;20399;-66
2021/10/08 08:45:20;;;;;;;4.90;2.00;;;21.80;52.40;;;;;;4968475;28;20430;-67
2021/10/08 08:48:04;;;;;;;3.65;1.80;;;21.90;52.50;;;;;;4986522;28;20428;-66
2021/10/08 08:50:31;;;;;;;4.03;1.48;;;21.90;52.20;;;;;;4985831;28;20863;-68
2021/10/08 08:52:57;;;;;;;4.30;1.65;;;21.90;52.00;;;;;;4985836;28;20398;-67
2021/10/08 08:55:23;;;;;;;4.93;1.80;;;21.80;52.10;;;;;;4967717;28;20410;-67
2021/10/08 08:57:49;;;;;;;3.33;1.50;;;21.80;52.30;;;;;;4985413;28;20481;-68
2021/10/08 09:00:17;;;;;;;4.05;1.35;;;21.80;52.60;;;;;;4985754;28;20418;-68
2021/10/08 09:02:45;;;;;;;2.97;1.00;;;21.90;52.60;;;;;;4984627;28;20429;-67
2021/10/08 09:05:18;;;;;;;2.55;1.00;;;21.90;52.30;;;;;;4984885;28;20390;-67
2021/10/08 09:07:45;;;;;;;2.27;1.20;;;21.80;52.10;;;;;;4966141;28;20833;-69
2021/10/08 09:10:14;;;;;;;2.38;1.00;;;21.80;51.90;;;;;;4983585;28;20428;-69
2021/10/08 09:12:41;;;;;;;2.20;0.98;;;21.70;52.10;;;;;;4983318;28;20466;-69
2021/10/08 09:15:09;;;;;;;2.05;0.80;;;21.80;52.40;;;;;;4983105;28;20906;-67
2021/10/08 09:17:35;;;;;;;2.80;0.95;;;21.90;52.30;;;;;;4982401;28;20422;-68
2021/10/08 09:20:07;;;;;;;2.22;1.00;;;21.90;52.20;;;;;;4982953;28;20637;-68
2021/10/08 09:22:41;;;;;;;1.90;0.80;;;21.90;52.10;;;;;;4982308;28;20390;-69
2021/10/08 09:25:23;;;;;;;2.47;1.00;;;21.80;51.90;;;;;;4965499;28;20398;-68
2021/10/08 09:27:53;;;;;;;1.73;0.70;;;21.80;52.10;;;;;;4982644;28;20473;-69
2021/10/08 09:30:19;;;;;;;3.60;0.80;;;21.80;52.30;;;;;;4965733;28;20458;-68
2021/10/08 09:32:51;;;;;;;2.45;0.90;;;21.90;52.40;;;;;;4982815;28;20382;-69
2021/10/08 09:35:19;;;;;;;2.70;0.82;;;21.90;52.10;;;;;;4982859;28;20806;-69
2021/10/08 09:37:57;;;;;;;1.77;0.73;;;21.80;52.00;;;;;;4982791;28;20476;-69
2021/10/08 09:40:28;;;;;;;1.50;0.80;;;21.80;52.00;;;;;;4983121;28;20426;-69
2021/10/08 09:43:06;;;;;;;2.25;0.80;;;21.80;52.20;;;;;;4982632;28;20481;-68
2021/10/08 09:46:13;;;;;;;1.95;0.90;;;21.80;52.40;;;;;;4964798;28;20521;-69
2021/10/08 09:48:43;;;;;;;1.67;0.80;;;21.90;52.30;;;;;;4969654;28;20789;-67
2021/10/08 09:51:16;;;;;;;1.88;0.88;;;21.90;52.10;;;;;;4982724;28;20874;-67
2021/10/08 09:53:48;;;;;;;1.33;0.90;;;21.80;52.00;;;;;;4981970;28;20398;-68
2021/10/08 09:56:32;;;;;;;1.48;1.00;;;21.80;52.00;;;;;;4964503;28;20857;-69
2021/10/08 09:58:58;;;;;;;1.42;0.90;;;21.80;52.20;;;;;;4964820;28;20418;-67
2021/10/08 10:01:26;;;;;;;1.70;0.80;;;21.80;52.30;;;;;;4964368;28;20407;-67
2021/10/08 10:03:53;;;;;;;1.92;0.80;;;21.90;52.10;;;;;;4964990;28;20936;-68
2021/10/08 10:06:20;;;;;;;1.38;0.70;;;21.90;52.10;;;;;;4982273;28;20402;-66
2021/10/08 10:08:47;;;;;;;1.50;0.90;;;21.80;52.10;;;;;;4964794;28;20445;-67
2021/10/08 10:11:20;;;;;;;1.33;0.90;;;21.80;52.10;;;;;;4982453;28;20399;-69
2021/10/08 10:13:48;;;;;;;1.60;1.00;;;21.70;52.30;;;;;;4964217;28;20399;-66
2021/10/08 10:16:15;;;;;;;1.30;0.80;;;21.80;52.30;;;;;;4982637;28;20398;-67
2021/10/08 10:18:49;;;;;;;1.70;0.73;;;21.90;52.30;;;;;;4983169;28;20410;-68
2021/10/08 10:21:19;;;;;;;1.30;0.90;;;21.90;52.30;;;;;;4983415;28;20882;-68
2021/10/08 10:23:46;;;;;;;1.75;1.00;;;21.80;52.20;;;;;;4983016;28;20794;-67
2021/10/08 10:26:13;;;;;;;1.42;0.90;;;21.80;52.20;;;;;;4983199;28;21195;-68
2021/10/08 10:28:39;;;;;;;1.30;0.90;;;21.70;52.20;;;;;;4965413;28;20450;-67
2021/10/08 10:31:06;;;;;;;1.60;1.00;;;21.80;52.40;;;;;;4965474;28;20815;-68
2021/10/08 10:33:31;;;;;;;2.33;1.10;;;21.90;52.30;;;;;;4982187;28;20398;-68
2021/10/08 10:36:02;;;;;;;1.75;0.80;;;21.90;52.20;;;;;;4982138;28;20402;-66
2021/10/08 10:38:39;;;;;;;2.10;1.17;;;21.80;52.30;;;;;;4983061;28;20587;-67
2021/10/08 10:41:07;;;;;;;1.70;1.05;;;21.80;52.20;;;;;;4966503;28;20420;-69
2021/10/08 10:43:36;;;;;;;1.70;0.90;;;21.80;52.30;;;;;;4983587;28;20413;-68
2021/10/08 10:52:01;;;;;;;1.40;1.00;;;21.90;52.40;;;;;;4976011;28;20409;-69
2021/10/08 10:54:37;;;;;;;1.60;1.10;;;21.90;52.40;;;;;;4981235;28;20495;-66
2021/10/08 10:57:11;;;;;;;3.00;1.20;;;21.80;52.30;;;;;;4981751;28;20507;-66
2021/10/08 10:59:41;;;;;;;3.25;1.20;;;21.80;52.80;;;;;;4981687;28;20418;-68
2021/10/08 11:02:15;;;;;;;2.80;1.20;;;21.90;52.30;;;;;;4982170;28;20478;-67
2021/10/08 11:04:51;;;;;;;1.90;1.23;;;21.90;52.50;;;;;;4982088;28;20827;-67
2021/10/08 11:07:22;;;;;;;2.50;1.70;;;21.90;52.60;;;;;;4981808;28;20488;-67
2021/10/08 11:10:03;;;;;;;239.15;146.40;;;21.90;52.30;;;;;;4977501;28;20457;-68
2021/10/08 11:12:39;;;;;;;410.60;247.60;;;22.00;53.80;;;;;;4982832;28;20406;-66
2021/10/08 11:15:23;;;;;;;275.08;171.52;;;22.10;57.40;;;;;;4965613;28;20426;-67
2021/10/08 11:18:00;;;;;;;217.07;131.90;;;22.30;56.80;;;;;;4982849;28;20394;-67
2021/10/08 11:20:32;;;;;;;177.38;111.80;;;22.30;56.00;;;;;;4964247;28;20430;-67
2021/10/08 11:23:08;;;;;;;151.05;99.18;;;22.30;55.70;;;;;;4982156;28;20437;-67
2021/10/08 11:25:45;;;;;;;139.40;86.68;;;22.40;56.30;;;;;;4980868;28;20453;-67
2021/10/08 11:28:14;;;;;;;136.87;87.47;;;22.40;56.80;;;;;;4982726;28;20498;-67
2021/10/08 11:30:41;;;;;;;135.32;83.65;;;22.50;57.50;;;;;;4982623;28;20421;-67
2021/10/08 11:33:07;;;;;;;119.57;76.72;;;22.50;57.60;;;;;;4966024;28;20430;-67
2021/10/08 11:35:36;;;;;;;125.90;73.78;;;22.60;56.60;;;;;;4982769;28;20994;-69
2021/10/08 11:38:04;;;;;;;123.97;71.57;;;22.70;57.20;;;;;;4982780;28;20418;-68
2021/10/08 11:40:33;;;;;;;103.13;63.45;;;22.70;57.50;;;;;;4982832;28;20422;-68
2021/10/08 11:43:04;;;;;;;61.55;37.05;;;22.70;57.60;;;;;;4982864;28;20474;-67
2021/10/08 11:45:53;;;;;;;82.90;50.97;;;22.70;54.80;;;;;;4982460;28;20608;-66
2021/10/08 11:48:24;;;;;;;74.40;45.78;;;22.80;56.10;;;;;;4983034;28;20386;-67
2021/10/08 11:53:23;;;;;;;72.55;41.53;;;22.90;57.90;;;;;;4982189;28;20390;-67
2021/10/08 11:55:49;;;;;;;65.13;39.50;;;22.90;58.80;;;;;;4965187;28;20745;-68
2021/10/08 11:58:21;;;;;;;58.17;36.80;;;23.00;59.40;;;;;;4982689;28;20409;-68
2021/10/08 12:00:48;;;;;;;51.63;32.70;;;23.00;58.80;;;;;;4964938;28;20932;-67
2021/10/08 12:03:25;;;;;;;45.50;30.77;;;23.20;58.20;;;;;;4982746;28;20406;-68
2021/10/08 12:05:53;;;;;;;47.78;30.08;;;23.30;57.00;;;;;;4982347;28;20947;-69
2021/10/08 12:08:21;;;;;;;46.60;28.65;;;23.30;56.90;;;;;;4982672;28;20390;-68
2021/10/08 12:10:57;;;;;;;42.50;26.70;;;23.30;58.20;;;;;;4982529;28;20520;-67
2021/10/08 12:13:35;;;;;;;43.20;25.10;;;23.30;57.70;;;;;;4982083;28;20390;-66
2021/10/08 12:16:02;;;;;;;44.70;25.20;;;23.30;57.50;;;;;;4981779;28;20724;-68
2021/10/08 12:18:28;;;;;;;42.92;24.88;;;23.30;58.00;;;;;;4963957;28;20409;-67
2021/10/08 12:21:10;;;;;;;39.75;21.77;;;23.30;57.20;;;;;;4981435;28;20426;-67
2021/10/08 12:23:37;;;;;;;35.08;19.35;;;23.20;56.50;;;;;;4980748;28;20386;-67
2021/10/08 12:26:05;;;;;;;31.25;17.85;;;23.20;56.30;;;;;;4981854;28;20831;-68
2021/10/08 12:28:31;;;;;;;30.80;18.30;;;23.10;56.00;;;;;;4980638;28;20387;-68
2021/10/08 12:31:03;;;;;;;26.02;16.35;;;23.10;56.30;;;;;;4981335;28;20744;-68
2021/10/08 12:33:42;;;;;;;25.90;15.52;;;23.10;56.00;;;;;;4980690;28;20394;-67
2021/10/08 12:36:23;;;;;;;21.27;13.95;;;23.20;55.40;;;;;;4981960;28;20398;-67
2021/10/08 12:38:59;;;;;;;24.35;13.65;;;23.20;54.60;;;;;;4981140;28;20576;-68
2021/10/08 12:41:48;;;;;;;28.40;13.80;;;23.10;54.50;;;;;;4979619;28;20481;-67
2021/10/08 12:44:23;;;;;;;20.05;13.05;;;23.10;54.50;;;;;;4980849;28;20783;-67
2021/10/08 12:47:09;;;;;;;31.35;12.77;;;23.10;54.90;;;;;;4963734;28;20452;-68
2021/10/08 12:49:53;;;;;;;21.20;11.25;;;23.20;55.00;;;;;;4980617;28;20493;-67
2021/10/08 12:52:41;;;;;;;17.85;10.57;;;23.30;54.60;;;;;;4982284;28;20493;-68
2021/10/08 12:55:09;;;;;;;19.20;10.43;;;23.30;54.50;;;;;;4982188;28;20763;-68
2021/10/08 12:57:55;;;;;;;22.85;10.00;;;23.20;54.40;;;;;;4981913;28;20854;-68